Time;durP1;ratioP1;P1;durP2;ratioP2;P2;SDS_P1;SDS_P2;PMS_P1;PMS_P2;Temp;Humidity;BMP_temperature;BMP_pressure;BME280_temperature;BME280_humidity;BME280_pressure;Samples;Min_cycle;Max_cycle;Signal;HPM_P1;HPM_P2
2021/07/25 00:00:06;;;;;;;14.97;13.53;;;19.10;99.90;;;;;;4953808;29;20417;-60
2021/07/25 00:02:36;;;;;;;13.80;12.50;;;19.10;99.90;;;;;;4954123;29;20268;-60
2021/07/25 00:05:04;;;;;;;16.90;12.57;;;19.10;99.90;;;;;;4953925;29;20512;-61
2021/07/25 00:07:29;;;;;;;14.07;12.57;;;19.10;99.90;;;;;;4953924;29;20433;-60
2021/07/25 00:09:55;;;;;;;14.10;12.77;;;19.10;99.90;;;;;;4953824;29;20430;-60
2021/07/25 00:12:21;;;;;;;13.10;11.70;;;19.20;99.90;;;;;;4953924;29;20208;-61
2021/07/25 00:14:46;;;;;;;14.63;13.13;;;19.30;99.90;;;;;;4953796;29;20228;-60
2021/07/25 00:17:12;;;;;;;13.00;11.83;;;19.40;99.90;;;;;;4954120;29;20173;-60
2021/07/25 00:19:37;;;;;;;13.43;12.17;;;19.50;99.90;;;;;;4953601;29;20540;-62
2021/07/25 00:22:05;;;;;;;14.17;12.87;;;19.50;99.90;;;;;;4953980;29;20328;-61
2021/07/25 00:24:33;;;;;;;18.17;12.83;;;19.60;99.90;;;;;;4953788;29;20206;-62
2021/07/25 00:27:00;;;;;;;14.00;12.80;;;19.60;99.90;;;;;;4953894;29;20428;-61
2021/07/25 00:29:31;;;;;;;13.83;12.63;;;19.50;99.90;;;;;;4953438;29;20432;-61
2021/07/25 00:32:01;;;;;;;15.70;12.83;;;19.50;99.90;;;;;;4953854;29;20464;-61
2021/07/25 00:34:32;;;;;;;14.27;12.87;;;19.30;99.90;;;;;;4953742;29;20468;-62
2021/07/25 00:36:58;;;;;;;14.80;13.30;;;19.30;99.90;;;;;;4953693;29;20443;-62
2021/07/25 00:39:24;;;;;;;15.33;13.87;;;19.30;99.90;;;;;;4953531;29;20511;-61
2021/07/25 00:41:50;;;;;;;13.23;12.00;;;19.30;99.90;;;;;;4953680;29;20507;-61
2021/07/25 00:44:17;;;;;;;15.77;13.87;;;19.30;99.90;;;;;;4953546;29;20487;-61
2021/07/25 00:46:45;;;;;;;13.80;12.40;;;19.20;99.90;;;;;;4953680;29;20503;-61
2021/07/25 00:49:11;;;;;;;14.73;13.07;;;19.20;99.90;;;;;;4957104;28;20439;-61
2021/07/25 00:51:37;;;;;;;14.93;13.53;;;19.20;99.90;;;;;;4972837;28;20458;-61
2021/07/25 00:54:03;;;;;;;14.07;12.77;;;19.20;99.90;;;;;;4972911;28;20519;-61
2021/07/25 00:56:29;;;;;;;14.20;13.00;;;19.20;99.90;;;;;;4974831;28;20220;-61
2021/07/25 00:58:54;;;;;;;14.73;13.43;;;19.20;99.90;;;;;;4976385;28;20667;-60
2021/07/25 01:01:22;;;;;;;15.60;14.30;;;19.20;99.90;;;;;;4976833;28;20188;-61
2021/07/25 01:04:09;;;;;;;15.67;14.20;;;19.20;99.90;;;;;;4976412;28;20299;-62
2021/07/25 01:07:12;;;;;;;15.07;13.73;;;19.30;99.90;;;;;;4976516;28;20476;-60
2021/07/25 01:10:18;;;;;;;14.27;12.73;;;19.30;99.90;;;;;;4976185;28;20423;-62
2021/07/25 01:12:51;;;;;;;14.50;13.10;;;19.30;99.90;;;;;;4959587;28;20489;-61
2021/07/25 01:15:24;;;;;;;14.43;13.13;;;19.30;99.90;;;;;;4976259;28;20451;-60
2021/07/25 01:17:50;;;;;;;14.53;13.33;;;19.30;99.90;;;;;;4976318;28;20518;-60
2021/07/25 01:20:15;;;;;;;14.70;13.20;;;19.20;99.90;;;;;;4975961;28;20517;-60
2021/07/25 01:22:50;;;;;;;15.27;12.93;;;19.20;99.90;;;;;;4976225;28;20455;-61
2021/07/25 01:25:18;;;;;;;14.93;13.33;;;19.10;99.90;;;;;;4976168;28;20199;-61
2021/07/25 01:27:58;;;;;;;15.73;14.23;;;18.80;99.90;;;;;;4975949;28;20929;-61
2021/07/25 01:30:26;;;;;;;16.73;13.83;;;18.70;99.90;;;;;;4975830;28;20506;-61
2021/07/25 01:32:56;;;;;;;14.70;13.30;;;18.50;99.90;;;;;;4976051;28;20435;-60
2021/07/25 01:35:23;;;;;;;14.73;13.23;;;18.40;99.90;;;;;;4990957;28;20542;-60
2021/07/25 01:37:49;;;;;;;16.97;15.30;;;18.40;99.90;;;;;;4976007;28;20510;-61
2021/07/25 01:40:22;;;;;;;17.33;15.83;;;18.40;99.90;;;;;;4975543;28;20411;-60
2021/07/25 01:42:48;;;;;;;16.80;15.30;;;18.40;99.90;;;;;;4975798;28;20976;-61
2021/07/25 01:45:14;;;;;;;16.47;14.80;;;18.50;99.90;;;;;;4975787;28;20471;-60
2021/07/25 01:47:41;;;;;;;17.23;13.50;;;18.50;99.90;;;;;;4958421;28;20796;-60
2021/07/25 01:50:07;;;;;;;13.93;12.53;;;18.50;99.90;;;;;;4964259;28;20523;-60
2021/07/25 01:52:33;;;;;;;15.13;13.63;;;18.60;99.90;;;;;;4956266;29;20444;-61
2021/07/25 01:54:59;;;;;;;14.90;13.50;;;18.60;99.90;;;;;;4956376;29;20495;-60
2021/07/25 01:57:24;;;;;;;16.50;14.90;;;18.70;99.90;;;;;;4956291;29;20173;-60
2021/07/25 01:59:50;;;;;;;15.57;13.70;;;18.70;99.90;;;;;;4956013;29;20210;-61
2021/07/25 02:02:15;;;;;;;16.07;14.17;;;18.60;99.90;;;;;;4956261;29;20181;-60
2021/07/25 02:04:41;;;;;;;14.90;13.37;;;18.60;99.90;;;;;;4955965;29;20726;-60
2021/07/25 02:07:07;;;;;;;14.50;13.27;;;18.70;99.90;;;;;;4955163;28;20232;-60
2021/07/25 02:09:34;;;;;;;14.37;12.60;;;18.80;99.90;;;;;;4955727;29;20179;-60
2021/07/25 02:11:59;;;;;;;15.00;13.53;;;18.80;99.90;;;;;;4955929;29;20231;-60
2021/07/25 02:14:25;;;;;;;17.20;15.47;;;18.70;99.90;;;;;;4955948;29;20879;-60
2021/07/25 02:16:50;;;;;;;16.33;14.83;;;18.70;99.90;;;;;;4956006;29;20181;-60
2021/07/25 02:19:16;;;;;;;18.10;16.40;;;18.60;99.90;;;;;;4955575;29;20669;-60
2021/07/25 02:21:42;;;;;;;16.20;14.70;;;18.70;99.90;;;;;;4955842;29;20543;-61
2021/07/25 02:24:07;;;;;;;17.30;15.60;;;18.70;99.90;;;;;;4955741;29;20680;-60
2021/07/25 02:26:33;;;;;;;16.07;14.67;;;18.70;99.90;;;;;;4955712;29;20177;-60
2021/07/25 02:28:58;;;;;;;16.93;15.43;;;18.60;99.90;;;;;;4955681;29;20181;-62
2021/07/25 02:31:24;;;;;;;16.63;15.23;;;18.60;99.90;;;;;;4956108;29;20196;-60
2021/07/25 02:33:49;;;;;;;18.27;16.40;;;18.60;99.90;;;;;;4956107;29;20189;-60
2021/07/25 02:36:15;;;;;;;16.00;14.70;;;18.60;99.90;;;;;;4955963;29;20847;-61
2021/07/25 02:38:40;;;;;;;16.50;15.00;;;18.60;99.90;;;;;;4955683;29;20293;-60
2021/07/25 02:41:06;;;;;;;16.30;14.63;;;18.60;99.90;;;;;;4955882;29;20185;-60
2021/07/25 02:43:31;;;;;;;18.27;14.77;;;18.70;99.90;;;;;;4956744;29;20655;-62
2021/07/25 02:45:57;;;;;;;16.20;14.77;;;18.70;99.90;;;;;;4957181;29;20650;-60
2021/07/25 02:48:23;;;;;;;14.70;13.40;;;18.60;99.90;;;;;;4955148;29;20224;-61
2021/07/25 02:50:48;;;;;;;16.43;13.37;;;18.70;99.90;;;;;;4971770;28;20660;-62
2021/07/25 02:53:14;;;;;;;13.90;12.60;;;18.80;99.90;;;;;;4974573;28;20176;-61
2021/07/25 02:55:39;;;;;;;13.80;12.47;;;18.80;99.90;;;;;;4974531;28;20172;-62
2021/07/25 02:58:05;;;;;;;17.33;15.80;;;18.80;99.90;;;;;;4974406;28;20176;-62
2021/07/25 03:00:31;;;;;;;16.43;13.80;;;18.70;99.90;;;;;;4974194;28;20180;-61
2021/07/25 03:02:56;;;;;;;14.37;13.17;;;18.70;99.90;;;;;;4974355;28;20673;-61
2021/07/25 03:05:24;;;;;;;15.70;14.20;;;18.70;99.90;;;;;;4974245;28;20200;-61
2021/07/25 03:07:50;;;;;;;14.77;13.47;;;18.60;99.90;;;;;;4974273;28;20218;-61
2021/07/25 03:10:17;;;;;;;16.73;15.17;;;18.60;99.90;;;;;;4973973;28;20833;-61
2021/07/25 03:12:43;;;;;;;19.00;17.00;;;18.40;99.90;;;;;;4974219;28;20312;-61
2021/07/25 03:15:09;;;;;;;19.63;17.63;;;18.40;99.90;;;;;;4974128;28;20529;-62
2021/07/25 03:17:34;;;;;;;17.50;15.80;;;18.40;99.90;;;;;;4974094;28;20599;-62
2021/07/25 03:20:00;;;;;;;18.50;16.77;;;18.40;99.90;;;;;;4973498;28;20420;-61
2021/07/25 03:22:26;;;;;;;18.13;16.43;;;18.40;99.90;;;;;;4974232;28;20180;-61
2021/07/25 03:24:51;;;;;;;17.77;15.70;;;18.50;99.90;;;;;;4974239;28;20192;-61
2021/07/25 03:27:17;;;;;;;17.47;15.87;;;18.60;99.90;;;;;;4956828;28;20172;-60
2021/07/25 03:29:42;;;;;;;19.20;17.30;;;18.60;99.90;;;;;;4973650;28;20202;-61
2021/07/25 03:32:08;;;;;;;18.30;16.43;;;18.50;99.90;;;;;;4973937;28;20196;-61
2021/07/25 03:34:33;;;;;;;17.10;15.20;;;18.40;99.90;;;;;;4973807;28;20192;-61
2021/07/25 03:37:03;;;;;;;21.80;14.20;;;18.40;99.90;;;;;;4973732;28;20184;-62
2021/07/25 03:39:29;;;;;;;15.37;13.97;;;18.30;99.90;;;;;;4973476;28;20649;-62
2021/07/25 03:41:55;;;;;;;14.47;13.17;;;18.20;99.90;;;;;;4973753;28;20423;-61
2021/07/25 03:44:21;;;;;;;15.27;13.97;;;18.20;99.90;;;;;;4973584;28;20431;-61
2021/07/25 03:46:47;;;;;;;15.93;14.50;;;18.20;99.90;;;;;;4956292;28;20215;-61
2021/07/25 03:49:13;;;;;;;17.17;15.47;;;18.20;99.90;;;;;;4969120;28;20424;-62
2021/07/25 03:51:39;;;;;;;14.67;13.27;;;18.30;99.90;;;;;;4954237;29;20500;-62
2021/07/25 03:54:05;;;;;;;14.60;13.00;;;18.30;99.90;;;;;;4954167;29;20441;-62
2021/07/25 03:56:33;;;;;;;15.70;14.20;;;18.30;99.90;;;;;;4954190;29;20234;-61
2021/07/25 03:58:58;;;;;;;14.50;13.20;;;18.40;99.90;;;;;;4954054;29;20830;-61
2021/07/25 04:01:24;;;;;;;19.57;15.87;;;18.40;99.90;;;;;;4954188;29;20551;-62
2021/07/25 04:03:49;;;;;;;13.87;12.67;;;18.40;99.90;;;;;;4978560;23;20208;-62
2021/07/25 04:06:15;;;;;;;14.80;13.40;;;18.50;99.90;;;;;;5012115;28;20178;-63
2021/07/25 04:08:40;;;;;;;15.80;14.20;;;18.50;99.90;;;;;;5012125;28;20173;-62
2021/07/25 04:11:06;;;;;;;19.30;16.27;;;18.50;99.90;;;;;;5012315;28;20225;-61
2021/07/25 04:13:31;;;;;;;18.83;16.53;;;18.50;99.90;;;;;;5012406;28;20596;-62
2021/07/25 04:15:57;;;;;;;20.57;17.27;;;18.50;99.90;;;;;;5012206;28;20182;-62
2021/07/25 04:18:22;;;;;;;18.73;17.03;;;18.50;99.90;;;;;;5011954;28;20632;-63
2021/07/25 04:20:48;;;;;;;22.03;20.13;;;18.50;99.90;;;;;;5012172;28;20564;-62
2021/07/25 04:23:13;;;;;;;20.47;18.23;;;18.60;99.90;;;;;;5012283;28;20605;-61
2021/07/25 04:25:39;;;;;;;18.27;16.07;;;18.70;99.90;;;;;;5012172;28;20199;-61
2021/07/25 04:28:05;;;;;;;16.90;15.23;;;18.70;99.90;;;;;;5012083;28;20171;-63
2021/07/25 04:30:32;;;;;;;18.17;16.47;;;18.70;99.90;;;;;;5012440;28;20213;-63
2021/07/25 04:32:59;;;;;;;19.50;16.13;;;18.70;99.90;;;;;;5016029;28;20511;-62
2021/07/25 04:35:25;;;;;;;20.30;16.33;;;18.80;99.90;;;;;;5016122;28;20441;-62
2021/07/25 04:37:55;;;;;;;16.17;14.40;;;18.80;99.90;;;;;;5016162;28;20449;-62
2021/07/25 04:40:22;;;;;;;14.60;13.30;;;19.00;99.90;;;;;;5015989;28;20422;-62
2021/07/25 04:42:51;;;;;;;11.47;10.47;;;19.10;99.90;;;;;;5015993;28;20568;-62
2021/07/25 04:45:24;;;;;;;12.67;11.57;;;19.10;99.90;;;;;;5015887;28;20445;-62
2021/07/25 04:47:59;;;;;;;13.87;12.57;;;19.00;99.90;;;;;;5016164;28;20422;-62
2021/07/25 04:50:31;;;;;;;10.60;9.50;;;19.10;99.90;;;;;;5015775;28;20492;-63
2021/07/25 04:53:01;;;;;;;11.50;10.47;;;19.20;99.90;;;;;;4998276;28;20454;-63
2021/07/25 04:55:32;;;;;;;11.23;10.23;;;19.20;99.90;;;;;;5015753;28;20441;-62
2021/07/25 04:58:07;;;;;;;12.90;11.70;;;19.10;99.90;;;;;;5015635;28;20934;-62
2021/07/25 05:00:38;;;;;;;13.60;9.80;;;19.10;99.90;;;;;;5015489;28;20420;-62
2021/07/25 05:03:06;;;;;;;9.43;8.63;;;19.10;99.90;;;;;;4998102;28;20425;-63
2021/07/25 05:05:32;;;;;;;10.90;9.80;;;19.00;99.90;;;;;;5015474;28;20887;-63
2021/07/25 05:08:01;;;;;;;9.93;9.13;;;19.10;99.90;;;;;;5015541;28;20425;-63
2021/07/25 05:10:27;;;;;;;8.73;8.00;;;19.10;99.90;;;;;;5015103;28;20427;-63
2021/07/25 05:13:02;;;;;;;9.43;8.53;;;19.20;99.90;;;;;;5015432;28;20453;-62
2021/07/25 05:15:39;;;;;;;8.97;8.27;;;19.30;99.90;;;;;;5015429;28;20437;-62
2021/07/25 05:18:07;;;;;;;9.93;9.10;;;19.40;99.90;;;;;;5015429;28;20475;-63
2021/07/25 05:20:51;;;;;;;9.80;8.83;;;19.40;99.90;;;;;;5015177;28;20440;-62
2021/07/25 05:23:20;;;;;;;10.80;9.90;;;19.60;99.90;;;;;;5015395;28;20508;-62
2021/07/25 05:25:51;;;;;;;12.17;10.97;;;19.60;99.90;;;;;;5015209;28;20465;-62
2021/07/25 05:28:19;;;;;;;12.67;11.47;;;19.70;99.90;;;;;;5015043;28;20442;-63
2021/07/25 05:30:50;;;;;;;12.00;10.83;;;19.70;99.90;;;;;;5014912;28;20783;-61
2021/07/25 05:33:16;;;;;;;11.00;10.20;;;19.70;99.90;;;;;;5014939;28;20426;-64
2021/07/25 05:35:41;;;;;;;9.33;8.53;;;19.70;99.90;;;;;;5014958;28;20441;-63
2021/07/25 05:38:07;;;;;;;8.70;7.87;;;19.70;99.90;;;;;;5015016;28;20171;-63
2021/07/25 05:40:33;;;;;;;7.83;7.13;;;19.60;99.90;;;;;;5014704;28;20179;-63
2021/07/25 05:42:58;;;;;;;8.57;7.77;;;19.40;99.90;;;;;;5014859;28;20179;-63
2021/07/25 05:45:24;;;;;;;8.57;7.70;;;19.40;99.90;;;;;;5014784;28;20199;-63
2021/07/25 05:47:49;;;;;;;8.30;7.50;;;19.50;99.90;;;;;;5014809;28;20648;-64
2021/07/25 05:50:15;;;;;;;8.53;7.70;;;19.50;99.90;;;;;;5001929;28;20248;-62
2021/07/25 05:52:51;;;;;;;7.00;6.50;;;19.50;99.90;;;;;;4995134;28;20203;-63
2021/07/25 05:55:22;;;;;;;9.10;8.40;;;19.50;99.90;;;;;;4995158;28;20556;-63
2021/07/25 05:57:48;;;;;;;9.07;8.27;;;19.60;99.90;;;;;;4995077;28;20517;-62
2021/07/25 06:00:14;;;;;;;7.70;7.00;;;19.80;99.90;;;;;;4994720;28;20477;-60
2021/07/25 06:03:00;;;;;;;8.10;7.40;;;20.00;99.90;;;;;;4994954;28;20569;-62
2021/07/25 06:05:27;;;;;;;9.27;7.20;;;20.20;99.90;;;;;;4994966;28;20858;-63
2021/07/25 06:07:54;;;;;;;7.37;6.67;;;20.30;99.90;;;;;;4995054;28;20430;-64
2021/07/25 06:10:21;;;;;;;7.60;7.00;;;20.30;99.90;;;;;;4994593;28;20462;-62
2021/07/25 06:12:46;;;;;;;7.63;7.00;;;20.40;99.90;;;;;;4994692;28;20454;-61
2021/07/25 06:15:13;;;;;;;6.30;5.80;;;20.70;99.90;;;;;;4994563;28;20804;-63
2021/07/25 06:17:38;;;;;;;8.07;7.37;;;20.70;99.90;;;;;;4994947;28;20183;-62
2021/07/25 06:20:04;;;;;;;7.00;6.50;;;20.70;99.90;;;;;;4994428;28;20422;-64
2021/07/25 06:22:40;;;;;;;7.50;6.90;;;20.80;99.90;;;;;;4994651;28;20250;-64
2021/07/25 06:25:07;;;;;;;7.03;6.50;;;20.70;99.90;;;;;;4994605;28;20433;-62
2021/07/25 06:27:32;;;;;;;7.90;7.20;;;20.90;99.90;;;;;;4994386;28;20843;-62
2021/07/25 06:29:58;;;;;;;7.53;6.83;;;21.10;99.90;;;;;;4994169;28;20415;-62
2021/07/25 06:32:23;;;;;;;8.13;7.40;;;21.20;99.90;;;;;;4994366;28;20207;-62
2021/07/25 06:34:49;;;;;;;11.60;10.53;;;21.10;99.90;;;;;;4976925;28;20222;-62
2021/07/25 06:37:14;;;;;;;13.13;10.90;;;21.30;99.90;;;;;;4994403;28;20254;-63
2021/07/25 06:39:40;;;;;;;9.50;8.70;;;21.50;99.90;;;;;;4994008;28;20250;-62
2021/07/25 06:42:05;;;;;;;9.63;8.87;;;21.50;99.90;;;;;;4994138;28;20534;-63
2021/07/25 06:44:31;;;;;;;10.03;9.03;;;21.60;99.90;;;;;;4994133;28;20204;-63
2021/07/25 06:46:56;;;;;;;10.03;9.13;;;21.60;99.90;;;;;;4994169;28;20175;-63
2021/07/25 06:49:21;;;;;;;14.13;12.83;;;21.80;99.90;;;;;;4998918;28;20167;-63
2021/07/25 06:51:47;;;;;;;20.77;18.60;;;22.20;99.90;;;;;;5013828;28;20199;-63
2021/07/25 06:54:14;;;;;;;20.47;18.40;;;22.50;99.90;;;;;;5013029;28;20266;-65
2021/07/25 06:56:39;;;;;;;20.37;18.67;;;22.80;99.90;;;;;;5013560;28;20179;-64
2021/07/25 06:59:05;;;;;;;16.30;14.80;;;22.90;99.90;;;;;;5013139;28;20424;-62
2021/07/25 07:01:30;;;;;;;13.20;11.90;;;22.70;99.90;;;;;;5013718;28;20279;-64
2021/07/25 07:03:55;;;;;;;12.70;11.40;;;22.50;99.90;;;;;;5013284;28;20742;-64
2021/07/25 07:06:21;;;;;;;10.90;9.80;;;22.50;99.90;;;;;;5013417;28;20186;-64
2021/07/25 07:08:46;;;;;;;11.13;10.13;;;22.70;99.90;;;;;;5013103;28;20175;-63
2021/07/25 07:11:12;;;;;;;11.33;9.30;;;22.80;99.90;;;;;;5013161;28;20199;-64
2021/07/25 07:13:37;;;;;;;11.47;10.30;;;22.90;99.90;;;;;;5013010;28;20262;-64
2021/07/25 07:16:03;;;;;;;11.70;10.60;;;23.10;99.90;;;;;;5013451;28;20175;-63
2021/07/25 07:18:29;;;;;;;9.57;8.60;;;23.10;99.90;;;;;;5012784;28;20244;-64
2021/07/25 07:20:54;;;;;;;10.20;9.13;;;23.30;99.90;;;;;;5013115;28;20919;-63
2021/07/25 07:23:24;;;;;;;8.97;8.13;;;23.40;99.90;;;;;;5013083;28;20229;-64
2021/07/25 07:25:52;;;;;;;9.50;8.20;;;23.40;99.90;;;;;;5012875;28;20183;-64
2021/07/25 07:28:19;;;;;;;10.50;9.50;;;23.20;99.90;;;;;;5012664;28;20479;-64
2021/07/25 07:30:47;;;;;;;8.00;7.40;;;23.10;99.90;;;;;;5012795;28;20410;-64
2021/07/25 07:33:18;;;;;;;7.73;7.00;;;22.90;99.90;;;;;;5012879;28;20417;-64
2021/07/25 07:35:44;;;;;;;9.63;7.87;;;22.70;99.90;;;;;;5012802;28;20835;-63
2021/07/25 07:38:11;;;;;;;12.63;11.20;;;22.70;99.90;;;;;;5012812;28;20475;-63
2021/07/25 07:40:38;;;;;;;10.70;9.70;;;22.40;99.90;;;;;;5012439;28;20410;-63
2021/07/25 07:43:05;;;;;;;10.30;9.40;;;22.20;99.90;;;;;;5012522;28;20493;-63
2021/07/25 07:45:32;;;;;;;11.00;10.00;;;22.00;99.90;;;;;;5012653;28;20524;-63
2021/07/25 07:47:57;;;;;;;8.90;8.20;;;22.10;99.90;;;;;;5012596;28;20441;-64
2021/07/25 07:50:23;;;;;;;9.90;9.00;;;22.30;99.90;;;;;;4998831;28;20426;-63
2021/07/25 07:52:49;;;;;;;10.07;9.20;;;22.50;99.90;;;;;;4992938;28;20684;-63
2021/07/25 07:55:16;;;;;;;16.90;15.47;;;22.80;99.90;;;;;;4992852;28;20195;-64
2021/07/25 07:57:42;;;;;;;11.90;10.73;;;22.80;99.90;;;;;;4992920;28;20415;-64
2021/07/25 08:00:08;;;;;;;10.60;9.60;;;23.10;99.90;;;;;;4992643;28;20426;-63
2021/07/25 08:02:35;;;;;;;11.13;10.03;;;23.30;99.90;;;;;;4992808;28;20473;-63
2021/07/25 08:05:02;;;;;;;12.07;10.60;;;23.70;99.90;;;;;;4992036;28;20458;-64
2021/07/25 08:07:27;;;;;;;12.20;10.40;;;24.30;99.90;;;;;;4992667;28;20427;-64
2021/07/25 08:09:53;;;;;;;10.67;9.57;;;25.00;99.90;;;;;;4992491;28;20445;-64
2021/07/25 08:12:18;;;;;;;11.77;9.50;;;25.20;99.90;;;;;;4992629;28;20702;-64
2021/07/25 08:14:44;;;;;;;9.70;8.90;;;25.50;99.90;;;;;;4992963;28;20198;-64
2021/07/25 08:17:10;;;;;;;10.83;9.60;;;25.40;99.90;;;;;;4992704;28;20592;-65
2021/07/25 08:19:35;;;;;;;7.07;6.47;;;25.30;99.90;;;;;;4992383;28;20172;-62
2021/07/25 08:22:02;;;;;;;6.10;5.60;;;24.80;99.90;;;;;;4992598;28;20207;-64
2021/07/25 08:24:28;;;;;;;6.43;5.87;;;24.30;99.90;;;;;;4992461;28;20195;-64
2021/07/25 08:26:53;;;;;;;7.63;5.33;;;24.20;99.90;;;;;;4992499;28;20518;-64
2021/07/25 08:29:19;;;;;;;6.43;5.80;;;23.80;99.90;;;;;;4992448;28;20197;-64
2021/07/25 08:31:45;;;;;;;5.90;5.50;;;23.70;99.90;;;;;;4975023;28;20241;-64
2021/07/25 08:34:10;;;;;;;6.63;5.77;;;23.70;99.90;;;;;;4992334;28;20214;-64
2021/07/25 08:36:36;;;;;;;6.63;6.13;;;23.60;99.90;;;;;;4992530;28;20214;-62
2021/07/25 08:39:03;;;;;;;6.63;6.00;;;23.30;99.90;;;;;;4992096;28;20679;-64
2021/07/25 08:41:47;;;;;;;6.17;5.57;;;23.00;99.90;;;;;;4992335;28;20229;-63
2021/07/25 08:44:34;;;;;;;8.10;6.07;;;22.80;99.90;;;;;;4992453;28;20473;-63
2021/07/25 08:47:01;;;;;;;5.77;5.37;;;22.60;99.90;;;;;;4992395;28;20415;-64
2021/07/25 08:49:57;;;;;;;8.30;7.70;;;22.60;99.90;;;;;;4997802;28;20449;-64
2021/07/25 08:52:31;;;;;;;7.13;6.63;;;22.50;99.90;;;;;;5011094;28;20552;-64
2021/07/25 08:54:58;;;;;;;6.93;6.20;;;22.60;99.90;;;;;;5011851;28;20951;-64
2021/07/25 08:57:26;;;;;;;8.27;7.40;;;22.50;99.90;;;;;;5011862;28;20414;-65
2021/07/25 08:59:53;;;;;;;9.43;8.43;;;22.50;99.90;;;;;;5011749;28;20426;-64
2021/07/25 09:02:27;;;;;;;12.03;10.70;;;22.40;99.90;;;;;;5011807;28;20406;-63
2021/07/25 09:04:54;;;;;;;15.97;14.37;;;22.20;99.90;;;;;;4994041;28;20464;-64
2021/07/25 09:07:22;;;;;;;25.53;19.17;;;22.10;99.90;;;;;;5011789;28;20454;-62
2021/07/25 09:09:50;;;;;;;18.63;15.87;;;22.00;99.90;;;;;;5011402;28;20482;-64
2021/07/25 09:12:18;;;;;;;11.97;10.70;;;21.90;99.90;;;;;;5011552;28;20460;-64
2021/07/25 09:14:47;;;;;;;13.07;11.70;;;21.80;99.90;;;;;;5011702;28;20878;-63
2021/07/25 09:17:13;;;;;;;12.47;11.17;;;21.90;99.90;;;;;;5013295;28;20887;-64
2021/07/25 09:20:08;;;;;;;9.83;8.83;;;22.10;99.90;;;;;;5015135;28;20453;-64
2021/07/25 09:22:33;;;;;;;9.33;8.43;;;22.30;99.90;;;;;;5015179;28;20189;-65
2021/07/25 09:24:59;;;;;;;8.70;7.90;;;22.50;99.90;;;;;;5015155;28;20827;-63
2021/07/25 09:27:24;;;;;;;8.30;7.60;;;22.70;99.90;;;;;;5015195;28;20179;-64
2021/07/25 09:29:50;;;;;;;9.80;8.90;;;22.80;99.90;;;;;;5014878;28;20183;-64
2021/07/25 09:32:18;;;;;;;8.70;7.63;;;22.60;99.90;;;;;;5015083;28;20285;-64
2021/07/25 09:34:49;;;;;;;8.97;8.17;;;22.50;99.90;;;;;;5015044;28;20270;-64
2021/07/25 09:37:22;;;;;;;9.57;8.67;;;22.30;99.90;;;;;;5015059;28;20417;-64
2021/07/25 09:39:55;;;;;;;9.50;8.70;;;22.00;99.90;;;;;;5014697;28;20410;-63
2021/07/25 09:42:28;;;;;;;9.30;8.53;;;21.70;99.90;;;;;;5014941;28;20913;-64
2021/07/25 09:44:56;;;;;;;8.93;8.03;;;21.40;99.90;;;;;;5014851;28;20445;-64
2021/07/25 09:47:37;;;;;;;8.00;7.40;;;21.00;99.90;;;;;;5014841;28;20425;-64
2021/07/25 09:50:06;;;;;;;11.80;8.13;;;20.70;99.90;;;;;;5003808;28;20514;-62
2021/07/25 09:52:36;;;;;;;8.33;7.60;;;20.50;99.90;;;;;;4995061;28;20463;-62
2021/07/25 09:55:05;;;;;;;8.73;8.00;;;20.40;99.90;;;;;;4977594;28;20538;-63
2021/07/25 09:57:31;;;;;;;9.80;8.90;;;20.30;99.90;;;;;;4995017;28;20460;-63
2021/07/25 10:00:06;;;;;;;9.27;8.37;;;20.20;99.90;;;;;;4994720;28;20430;-64
2021/07/25 10:02:39;;;;;;;10.47;9.43;;;20.10;99.90;;;;;;4995031;28;20501;-62
2021/07/25 10:05:16;;;;;;;9.77;8.93;;;20.00;99.90;;;;;;5001128;23;20535;-62
2021/07/25 10:07:43;;;;;;;9.60;8.80;;;20.00;99.90;;;;;;4975533;28;20419;-63
2021/07/25 10:10:11;;;;;;;10.17;9.13;;;19.90;99.90;;;;;;4975019;28;20439;-63
2021/07/25 10:12:38;;;;;;;9.77;8.87;;;19.80;99.90;;;;;;4975344;28;20455;-63
2021/07/25 10:15:24;;;;;;;10.07;9.17;;;19.60;99.90;;;;;;4975180;28;20467;-62
2021/07/25 10:17:50;;;;;;;9.73;8.83;;;19.60;99.90;;;;;;4974864;28;20862;-62
2021/07/25 10:20:16;;;;;;;9.47;8.77;;;19.40;99.90;;;;;;4974923;28;20412;-65
2021/07/25 10:22:46;;;;;;;12.50;9.53;;;19.30;99.90;;;;;;4975187;28;20420;-66
2021/07/25 10:25:15;;;;;;;9.50;8.70;;;19.30;99.90;;;;;;4974978;28;20243;-66
2021/07/25 10:27:44;;;;;;;9.87;9.10;;;19.30;99.90;;;;;;4974689;28;20440;-66
2021/07/25 10:30:11;;;;;;;10.50;9.50;;;19.40;99.90;;;;;;4974211;28;20427;-66
2021/07/25 10:32:38;;;;;;;14.73;13.20;;;19.50;99.90;;;;;;4974908;28;20465;-65
2021/07/25 10:35:10;;;;;;;10.13;9.33;;;19.50;99.90;;;;;;4974917;28;20809;-65
2021/07/25 10:37:37;;;;;;;9.40;8.60;;;19.50;99.90;;;;;;4974832;28;20423;-65
2021/07/25 10:40:04;;;;;;;10.63;9.53;;;19.60;99.90;;;;;;4974659;28;20428;-66
2021/07/25 10:42:31;;;;;;;9.77;8.87;;;19.50;99.90;;;;;;4974835;28;20793;-65
2021/07/25 10:44:57;;;;;;;9.97;8.70;;;19.50;99.90;;;;;;4974717;28;20435;-65
2021/07/25 10:47:27;;;;;;;9.90;9.00;;;19.40;99.90;;;;;;4974688;28;20454;-65
2021/07/25 10:50:20;;;;;;;10.07;9.07;;;19.30;99.90;;;;;;4974358;28;20430;-65
2021/07/25 10:53:00;;;;;;;10.73;9.70;;;19.40;99.90;;;;;;4974567;28;20525;-65
2021/07/25 10:55:35;;;;;;;11.83;10.73;;;19.40;99.90;;;;;;4974574;28;20538;-65
2021/07/25 10:58:12;;;;;;;11.13;10.23;;;19.50;99.90;;;;;;4974534;28;20425;-66
2021/07/25 11:00:49;;;;;;;11.63;10.53;;;19.70;99.90;;;;;;4974218;28;20808;-66
2021/07/25 11:03:30;;;;;;;11.47;10.57;;;19.70;99.90;;;;;;4974481;28;20425;-66
2021/07/25 11:08:35;;;;;;;11.90;10.90;;;19.70;99.90;;;;;;4974049;28;20423;-65
2021/07/25 11:11:21;;;;;;;12.10;10.97;;;19.80;99.90;;;;;;4974174;28;20833;-65
2021/07/25 11:13:47;;;;;;;11.80;10.90;;;19.80;99.90;;;;;;4974122;28;20431;-65
2021/07/25 11:16:27;;;;;;;12.40;11.30;;;19.80;99.90;;;;;;4974150;28;20812;-66
2021/07/25 11:18:54;;;;;;;12.40;11.43;;;19.80;99.90;;;;;;4973811;28;20176;-64
2021/07/25 11:21:53;;;;;;;13.10;12.00;;;19.90;99.90;;;;;;4973934;28;20792;-65
2021/07/25 11:24:19;;;;;;;11.63;10.63;;;20.00;99.90;;;;;;4931776;28;20557;-65
2021/07/25 11:26:45;;;;;;;12.50;11.20;;;20.00;99.90;;;;;;4974181;28;20968;-65
2021/07/25 11:29:30;;;;;;;12.30;11.30;;;20.00;99.90;;;;;;4973639;28;20174;-65
2021/07/25 11:31:56;;;;;;;14.50;12.13;;;20.10;99.90;;;;;;4973839;28;20459;-64
2021/07/25 11:34:25;;;;;;;12.27;11.00;;;20.00;99.90;;;;;;4973823;28;20522;-66
2021/07/25 11:37:02;;;;;;;11.87;10.90;;;20.00;99.90;;;;;;4973863;28;20572;-65
2021/07/25 11:39:29;;;;;;;11.00;10.10;;;20.10;99.90;;;;;;4973446;28;20423;-66
2021/07/25 11:41:55;;;;;;;12.20;11.00;;;20.10;99.90;;;;;;4973777;28;20959;-65
2021/07/25 11:44:28;;;;;;;13.43;12.17;;;20.20;99.90;;;;;;4973594;28;20447;-65
2021/07/25 11:46:59;;;;;;;13.50;12.37;;;20.40;99.90;;;;;;4973729;28;20418;-65
2021/07/25 11:49:33;;;;;;;13.07;11.83;;;20.40;99.90;;;;;;4967950;28;20480;-65
2021/07/25 11:52:03;;;;;;;13.93;12.63;;;20.50;99.90;;;;;;4937406;29;20883;-65
2021/07/25 11:54:38;;;;;;;13.83;12.60;;;20.40;99.90;;;;;;4954208;29;20436;-65
2021/07/25 11:57:08;;;;;;;12.37;11.37;;;20.40;99.90;;;;;;4954195;29;21036;-65
2021/07/25 11:59:37;;;;;;;12.63;11.53;;;20.40;99.90;;;;;;4954018;29;20921;-65
2021/07/25 12:02:05;;;;;;;13.33;12.13;;;20.50;99.90;;;;;;4954148;29;20475;-65
2021/07/25 12:04:39;;;;;;;12.67;11.67;;;20.30;99.90;;;;;;4953977;29;20523;-65
2021/07/25 12:07:06;;;;;;;18.87;16.93;;;20.30;99.90;;;;;;4954195;29;20439;-65
2021/07/25 12:09:34;;;;;;;13.27;12.00;;;20.30;99.90;;;;;;4953801;29;20455;-65
2021/07/25 12:12:11;;;;;;;12.60;11.30;;;20.20;99.90;;;;;;4953960;29;20456;-64
2021/07/25 12:14:39;;;;;;;15.10;11.97;;;20.20;99.90;;;;;;4954003;29;20945;-65
2021/07/25 12:17:06;;;;;;;13.10;11.83;;;20.20;99.90;;;;;;4953966;29;20787;-66
2021/07/25 12:19:37;;;;;;;10.73;9.73;;;20.10;99.90;;;;;;4953576;29;20424;-66
2021/07/25 12:22:10;;;;;;;11.60;10.23;;;20.20;99.90;;;;;;4953995;29;20424;-65
2021/07/25 12:24:38;;;;;;;11.17;10.17;;;20.20;99.90;;;;;;4954041;29;20452;-65
2021/07/25 12:27:05;;;;;;;9.00;8.10;;;20.10;99.90;;;;;;4953835;29;20425;-66
2021/07/25 12:29:41;;;;;;;9.10;8.40;;;20.10;99.90;;;;;;4953672;29;20425;-65
2021/07/25 12:32:26;;;;;;;9.30;8.43;;;19.90;99.90;;;;;;4954659;29;20448;-66
2021/07/25 12:35:12;;;;;;;9.93;8.80;;;19.80;99.90;;;;;;4953821;29;20444;-63
2021/07/25 12:37:43;;;;;;;10.30;9.30;;;19.70;99.90;;;;;;4953040;29;20509;-66
2021/07/25 12:40:32;;;;;;;10.97;9.73;;;19.70;99.90;;;;;;4954075;29;20536;-65
2021/07/25 12:42:58;;;;;;;10.30;9.30;;;19.60;99.90;;;;;;4955080;29;20926;-64